Time;durP1;ratioP1;P1;durP2;ratioP2;P2;SDS_P1;SDS_P2;PMS_P1;PMS_P2;Temp;Humidity;BMP_temperature;BMP_pressure;BME280_temperature;BME280_humidity;BME280_pressure;Samples;Min_cycle;Max_cycle;Signal;HPM_P1;HPM_P2
2021/01/27 00:00:11;;;;;;;11.07;2.70;;;22.50;99.90;;;;;;5048842;28;20183;-70
2021/01/27 00:02:39;;;;;;;12.83;1.97;;;22.60;99.90;;;;;;5053840;28;20571;-69
2021/01/27 00:05:09;;;;;;;10.03;2.17;;;22.50;99.90;;;;;;5051717;28;20282;-70
2021/01/27 00:07:36;;;;;;;10.03;2.03;;;22.50;99.90;;;;;;5052575;28;20184;-69
2021/01/27 00:10:05;;;;;;;11.53;2.53;;;22.50;99.90;;;;;;5053493;28;20207;-70
2021/01/27 00:12:32;;;;;;;12.77;2.63;;;22.50;99.90;;;;;;5052231;28;20255;-70
2021/01/27 00:14:59;;;;;;;12.03;2.20;;;22.60;99.90;;;;;;5052365;28;20200;-70
2021/01/27 00:17:27;;;;;;;15.70;2.43;;;22.60;99.90;;;;;;5052089;28;20187;-69
2021/01/27 00:19:55;;;;;;;13.70;2.70;;;22.60;99.90;;;;;;5051678;28;20207;-68
2021/01/27 00:22:22;;;;;;;15.90;2.53;;;22.60;99.90;;;;;;5050711;28;20642;-68
2021/01/27 00:24:50;;;;;;;10.93;2.20;;;22.60;99.90;;;;;;5052454;28;20179;-70
2021/01/27 00:27:17;;;;;;;14.00;1.93;;;22.60;99.90;;;;;;5052093;28;20285;-69
2021/01/27 00:29:44;;;;;;;12.20;2.00;;;22.60;99.90;;;;;;5052647;28;20263;-69
2021/01/27 00:32:12;;;;;;;9.37;2.00;;;22.50;99.90;;;;;;5052317;28;20214;-70
2021/01/27 00:34:39;;;;;;;12.67;2.60;;;22.50;99.90;;;;;;5052201;28;20203;-68
2021/01/27 00:37:07;;;;;;;9.47;2.07;;;22.40;99.90;;;;;;5063427;28;20188;-69
2021/01/27 00:39:34;;;;;;;11.33;2.47;;;22.60;99.90;;;;;;5048115;28;20673;-69
2021/01/27 00:42:01;;;;;;;10.23;2.37;;;22.80;99.90;;;;;;5051315;28;20645;-69
2021/01/27 00:44:29;;;;;;;11.20;2.17;;;23.00;99.90;;;;;;5048795;28;20542;-70
2021/01/27 00:46:56;;;;;;;14.97;2.50;;;23.10;99.90;;;;;;5051477;28;20662;-69
2021/01/27 00:49:24;;;;;;;12.47;2.67;;;23.30;99.80;;;;;;5051041;28;20194;-70
2021/01/27 00:51:51;;;;;;;13.03;2.23;;;23.20;99.70;;;;;;5051231;28;20203;-68
2021/01/27 00:54:19;;;;;;;9.37;2.17;;;23.20;99.60;;;;;;5051706;28;20184;-72
2021/01/27 00:56:46;;;;;;;9.73;2.07;;;23.20;99.60;;;;;;5051814;28;20229;-69
2021/01/27 00:59:14;;;;;;;10.57;2.27;;;23.30;99.10;;;;;;5051543;28;20183;-70
2021/01/27 01:01:41;;;;;;;15.13;2.97;;;23.50;98.60;;;;;;5052493;28;20195;-71
2021/01/27 01:04:08;;;;;;;12.97;2.83;;;23.70;98.30;;;;;;5052646;28;20589;-71
2021/01/27 01:06:36;;;;;;;13.07;2.53;;;23.70;97.70;;;;;;5053438;28;20184;-69
2021/01/27 01:09:04;;;;;;;13.73;2.50;;;23.90;97.20;;;;;;5052076;28;20266;-68
2021/01/27 01:11:31;;;;;;;12.63;2.63;;;23.90;97.40;;;;;;5053378;28;20697;-70
2021/01/27 01:13:59;;;;;;;9.83;2.60;;;24.10;97.00;;;;;;5053493;28;20169;-70
2021/01/27 01:16:26;;;;;;;12.53;2.73;;;24.40;96.50;;;;;;5051360;28;20287;-67
2021/01/27 01:18:54;;;;;;;10.93;2.03;;;25.00;95.10;;;;;;5050172;28;20172;-69
2021/01/27 01:21:21;;;;;;;10.33;1.67;;;25.10;94.40;;;;;;5052245;28;20606;-70
2021/01/27 01:23:48;;;;;;;8.40;1.93;;;24.90;94.40;;;;;;5041175;28;20183;-70
2021/01/27 01:26:16;;;;;;;10.53;2.17;;;24.80;94.40;;;;;;5035810;28;20223;-68
2021/01/27 01:28:46;;;;;;;13.03;2.83;;;24.70;94.70;;;;;;5049817;28;20186;-70
2021/01/27 01:31:13;;;;;;;16.43;2.30;;;24.40;95.10;;;;;;5032450;28;20184;-72
2021/01/27 01:33:41;;;;;;;13.47;2.43;;;24.20;95.50;;;;;;5050364;28;20569;-69
2021/01/27 01:36:08;;;;;;;13.50;3.00;;;24.10;95.90;;;;;;5052767;28;20200;-69
2021/01/27 01:38:35;;;;;;;16.50;3.23;;;24.10;95.90;;;;;;5052290;28;20538;-70
2021/01/27 01:41:05;;;;;;;12.83;2.43;;;24.10;96.40;;;;;;5051901;28;20230;-71
2021/01/27 01:43:40;;;;;;;7.03;2.37;;;24.20;96.00;;;;;;5052640;28;20246;-71
2021/01/27 01:46:20;;;;;;;16.90;2.67;;;24.30;95.60;;;;;;5051874;28;20176;-70
2021/01/27 01:48:58;;;;;;;14.27;2.97;;;24.40;95.50;;;;;;5051589;28;20183;-71
2021/01/27 01:51:32;;;;;;;18.07;3.07;;;24.00;96.40;;;;;;5052487;28;20172;-70
2021/01/27 01:54:18;;;;;;;14.37;2.63;;;24.00;96.30;;;;;;5050886;28;20221;-71
2021/01/27 01:56:54;;;;;;;12.87;2.77;;;23.80;96.30;;;;;;5052476;28;20492;-71
2021/01/27 01:59:22;;;;;;;15.20;2.33;;;23.80;96.50;;;;;;5052554;28;20184;-72
2021/01/27 02:01:57;;;;;;;9.57;2.50;;;23.80;96.40;;;;;;5053567;28;20539;-70
2021/01/27 02:04:32;;;;;;;14.80;3.30;;;23.70;96.60;;;;;;5052993;28;20183;-67
2021/01/27 02:07:01;;;;;;;23.03;3.33;;;23.80;96.50;;;;;;5052044;28;20183;-69
2021/01/27 02:09:29;;;;;;;17.53;3.23;;;24.10;96.20;;;;;;5053255;28;20176;-71
2021/01/27 02:12:24;;;;;;;12.40;2.23;;;24.00;96.10;;;;;;5050522;28;20176;-69
2021/01/27 02:15:20;;;;;;;14.30;3.13;;;23.90;96.30;;;;;;5031973;28;20286;-68
2021/01/27 02:18:08;;;;;;;20.57;3.07;;;23.80;96.20;;;;;;5040690;28;20609;-71
2021/01/27 02:20:45;;;;;;;16.80;3.47;;;23.80;96.60;;;;;;5056033;28;20226;-68
2021/01/27 02:23:13;;;;;;;18.30;3.10;;;23.50;97.00;;;;;;5056917;28;20172;-71
2021/01/27 02:26:27;;;;;;;19.97;3.67;;;23.40;97.00;;;;;;5056348;28;20780;-69
2021/01/27 02:29:09;;;;;;;16.60;3.00;;;23.50;97.20;;;;;;5019011;28;20598;-70
2021/01/27 02:32:01;;;;;;;21.40;4.10;;;23.60;96.30;;;;;;5050364;28;20183;-69
2021/01/27 02:35:12;;;;;;;14.03;2.87;;;23.80;96.30;;;;;;5056943;28;20212;-69
2021/01/27 02:37:51;;;;;;;17.90;3.40;;;23.60;96.40;;;;;;5036559;28;20191;-72
2021/01/27 02:40:27;;;;;;;18.00;3.53;;;23.30;96.90;;;;;;5041562;28;20199;-70
2021/01/27 02:43:27;;;;;;;20.37;3.17;;;23.50;96.90;;;;;;5055151;28;20184;-70
2021/01/27 02:46:12;;;;;;;19.73;3.10;;;23.50;96.60;;;;;;5043205;28;20231;-69
2021/01/27 02:49:06;;;;;;;19.00;3.70;;;23.50;96.30;;;;;;5054834;28;20192;-72
2021/01/27 02:51:47;;;;;;;17.53;4.13;;;23.60;96.30;;;;;;5056135;28;20286;-68
2021/01/27 02:54:35;;;;;;;20.60;4.10;;;23.50;96.20;;;;;;5055273;28;20191;-74
2021/01/27 02:57:28;;;;;;;22.87;3.63;;;23.20;96.70;;;;;;5056067;28;20195;-68
2021/01/27 03:00:08;;;;;;;25.83;3.33;;;23.20;96.70;;;;;;5054315;28;20220;-71
2021/01/27 03:03:01;;;;;;;24.83;4.57;;;23.20;96.70;;;;;;5056006;28;20205;-70
2021/01/27 03:05:37;;;;;;;16.53;3.40;;;23.00;97.10;;;;;;5051537;28;20279;-70
2021/01/27 03:08:22;;;;;;;24.53;4.23;;;23.10;97.00;;;;;;5056018;28;20539;-75
2021/01/27 03:10:55;;;;;;;21.23;3.70;;;23.10;97.20;;;;;;5055199;28;20176;-66
2021/01/27 03:13:23;;;;;;;19.07;3.67;;;22.90;97.70;;;;;;5054633;28;20230;-71
2021/01/27 03:15:50;;;;;;;21.57;3.33;;;22.80;97.70;;;;;;5055889;28;20206;-71
2021/01/27 03:18:26;;;;;;;28.20;3.87;;;22.80;98.00;;;;;;5048596;28;20235;-70
2021/01/27 03:21:02;;;;;;;20.73;3.17;;;22.70;98.30;;;;;;5036371;28;20192;-72
2021/01/27 03:23:44;;;;;;;19.43;3.03;;;22.70;98.20;;;;;;5046786;28;20221;-69
2021/01/27 03:26:17;;;;;;;20.40;4.00;;;22.60;98.30;;;;;;5044604;28;20219;-67
2021/01/27 03:29:18;;;;;;;27.40;3.87;;;22.60;98.70;;;;;;5055993;28;20180;-70
2021/01/27 03:31:46;;;;;;;23.43;3.80;;;22.50;99.00;;;;;;5054702;28;20590;-69
2021/01/27 03:34:29;;;;;;;22.13;4.13;;;22.30;99.20;;;;;;5053692;28;20215;-68
2021/01/27 03:37:09;;;;;;;23.13;3.83;;;22.40;99.00;;;;;;5052761;28;20238;-70
2021/01/27 03:39:40;;;;;;;20.53;3.33;;;22.40;98.60;;;;;;5052986;28;20183;-70
2021/01/27 03:42:15;;;;;;;18.20;3.80;;;22.50;98.30;;;;;;5054318;28;20180;-71
2021/01/27 03:44:55;;;;;;;18.20;3.73;;;22.40;98.50;;;;;;5054634;28;20183;-71
2021/01/27 03:47:52;;;;;;;17.30;3.73;;;22.30;98.90;;;;;;5053596;28;20603;-69
2021/01/27 03:50:25;;;;;;;24.43;4.27;;;22.30;99.00;;;;;;5041523;28;20184;-69
2021/01/27 03:53:23;;;;;;;25.93;3.50;;;22.20;99.10;;;;;;5053878;28;20195;-70
2021/01/27 03:56:01;;;;;;;25.80;3.40;;;22.20;99.40;;;;;;5053853;28;20212;-67
2021/01/27 03:58:40;;;;;;;22.83;3.90;;;22.20;99.50;;;;;;5054951;28;20183;-68
2021/01/27 04:01:11;;;;;;;18.43;3.90;;;22.30;99.40;;;;;;5051623;28;20246;-69
2021/01/27 04:03:39;;;;;;;21.03;3.67;;;22.10;99.90;;;;;;5054252;28;20184;-70
2021/01/27 04:06:07;;;;;;;21.87;4.10;;;22.10;99.90;;;;;;5052631;28;20181;-69
2021/01/27 04:08:35;;;;;;;17.10;3.43;;;21.90;99.90;;;;;;5054014;28;20184;-68
2021/01/27 04:11:04;;;;;;;14.67;3.30;;;21.70;99.90;;;;;;5053171;28;20533;-68
2021/01/27 04:13:31;;;;;;;27.27;4.80;;;21.60;99.90;;;;;;5053173;28;20273;-68
2021/01/27 04:16:00;;;;;;;27.70;4.30;;;21.50;99.90;;;;;;5054110;28;20614;-69
2021/01/27 04:18:28;;;;;;;22.63;3.50;;;21.50;99.90;;;;;;5053337;28;20267;-69
2021/01/27 04:20:55;;;;;;;24.20;3.53;;;21.40;99.90;;;;;;5052887;28;20215;-69
2021/01/27 04:23:23;;;;;;;18.70;3.43;;;21.40;99.90;;;;;;5049837;28;20685;-69
2021/01/27 04:25:51;;;;;;;19.03;2.70;;;21.40;99.90;;;;;;5050976;28;20682;-69
2021/01/27 04:28:19;;;;;;;16.23;3.10;;;21.40;99.90;;;;;;5047630;28;20238;-68
2021/01/27 04:30:46;;;;;;;14.53;3.37;;;21.40;99.90;;;;;;5050286;28;20195;-69
2021/01/27 04:33:13;;;;;;;18.03;3.30;;;21.40;99.90;;;;;;5051140;28;20188;-68
2021/01/27 04:35:41;;;;;;;17.83;3.80;;;21.40;99.90;;;;;;5050670;28;20678;-69
2021/01/27 04:38:09;;;;;;;27.67;4.10;;;21.40;99.90;;;;;;5053328;28;20196;-69
2021/01/27 04:40:43;;;;;;;17.60;3.47;;;21.30;99.90;;;;;;5050894;28;20188;-68
2021/01/27 04:43:42;;;;;;;17.73;3.67;;;21.30;99.90;;;;;;5049345;28;20765;-69
2021/01/27 04:46:18;;;;;;;23.07;3.93;;;21.40;99.90;;;;;;5051955;28;20249;-69
2021/01/27 04:48:48;;;;;;;22.63;4.27;;;21.40;99.90;;;;;;5053006;28;20219;-68
2021/01/27 04:51:22;;;;;;;19.60;3.83;;;21.50;99.90;;;;;;5044683;28;20653;-67
2021/01/27 04:54:24;;;;;;;20.00;4.37;;;21.40;99.90;;;;;;5057989;28;20183;-69
2021/01/27 04:57:16;;;;;;;15.87;3.60;;;21.30;99.90;;;;;;5052614;28;20209;-71
2021/01/27 05:00:02;;;;;;;15.20;3.40;;;21.20;99.90;;;;;;5042106;28;20633;-70
2021/01/27 05:03:07;;;;;;;20.37;4.13;;;21.10;99.90;;;;;;5053119;28;20513;-68
2021/01/27 05:05:38;;;;;;;24.20;3.60;;;21.00;99.90;;;;;;5053151;28;20179;-69
2021/01/27 05:08:21;;;;;;;20.17;3.90;;;21.00;99.90;;;;;;5053298;28;20183;-69
2021/01/27 05:10:58;;;;;;;24.80;3.97;;;21.00;99.90;;;;;;5052174;28;20180;-68
2021/01/27 05:13:34;;;;;;;22.97;3.83;;;21.00;99.90;;;;;;5053277;28;20670;-69
2021/01/27 05:16:14;;;;;;;23.77;4.80;;;21.10;99.90;;;;;;5052926;28;20235;-70
2021/01/27 05:18:42;;;;;;;18.03;3.53;;;21.10;99.90;;;;;;5052239;28;20182;-68
2021/01/27 05:21:30;;;;;;;15.10;3.33;;;21.20;99.90;;;;;;5052977;28;20208;-69
2021/01/27 05:23:58;;;;;;;12.90;2.83;;;21.30;99.90;;;;;;5051062;28;20180;-68
2021/01/27 05:26:39;;;;;;;20.00;4.30;;;21.40;99.90;;;;;;5044748;28;20686;-68
2021/01/27 05:29:19;;;;;;;15.90;4.20;;;21.50;99.90;;;;;;5052906;28;20271;-68
2021/01/27 05:32:10;;;;;;;21.07;3.53;;;21.40;99.90;;;;;;5037786;28;20167;-69
2021/01/27 05:34:41;;;;;;;18.73;3.67;;;21.30;99.90;;;;;;5050806;28;20200;-69
2021/01/27 05:37:19;;;;;;;14.13;2.80;;;21.30;99.90;;;;;;5052423;28;20183;-68
2021/01/27 05:39:48;;;;;;;16.53;3.00;;;21.30;99.90;;;;;;5051971;28;20179;-69
2021/01/27 05:42:21;;;;;;;16.77;3.27;;;21.30;99.90;;;;;;5051899;28;20188;-69
2021/01/27 05:44:52;;;;;;;19.13;3.70;;;21.40;99.90;;;;;;5051750;28;20188;-69
2021/01/27 05:47:34;;;;;;;16.33;2.97;;;21.40;99.90;;;;;;5043628;28;20203;-69
2021/01/27 05:50:23;;;;;;;20.77;3.13;;;21.40;99.90;;;;;;5049937;28;20184;-70
2021/01/27 05:52:51;;;;;;;29.70;4.90;;;21.50;99.90;;;;;;5040888;28;20675;-68
2021/01/27 05:55:18;;;;;;;21.17;4.20;;;21.40;99.90;;;;;;5045641;28;20211;-70
2021/01/27 05:57:58;;;;;;;15.93;3.87;;;21.30;99.90;;;;;;5050385;28;20564;-70
2021/01/27 06:00:29;;;;;;;18.37;4.10;;;21.10;99.90;;;;;;5052316;28;20206;-69
2021/01/27 06:03:00;;;;;;;18.33;3.80;;;20.90;99.90;;;;;;5050142;28;20172;-68
2021/01/27 06:05:38;;;;;;;20.43;2.87;;;20.90;99.90;;;;;;5044233;28;20188;-71
2021/01/27 06:08:22;;;;;;;18.20;3.47;;;20.90;99.90;;;;;;5050583;28;20172;-70
2021/01/27 06:10:51;;;;;;;19.97;2.97;;;20.90;99.90;;;;;;5050026;28;20191;-69
2021/01/27 06:13:29;;;;;;;15.10;3.57;;;20.80;99.90;;;;;;5052327;28;20188;-69
2021/01/27 06:15:57;;;;;;;19.23;3.30;;;20.80;99.90;;;;;;5051872;28;20208;-71
2021/01/27 06:18:33;;;;;;;18.00;3.47;;;20.80;99.90;;;;;;5059194;28;20648;-68
2021/01/27 06:21:40;;;;;;;14.50;3.00;;;20.80;99.90;;;;;;5056639;28;20278;-69
2021/01/27 06:24:33;;;;;;;18.20;2.83;;;20.80;99.90;;;;;;5051274;28;20172;-69
2021/01/27 06:27:09;;;;;;;15.30;3.57;;;20.80;99.90;;;;;;5050212;28;20276;-69
2021/01/27 06:30:06;;;;;;;18.80;3.37;;;20.80;99.90;;;;;;5051085;28;20176;-69
2021/01/27 06:32:47;;;;;;;22.30;3.60;;;20.80;99.90;;;;;;5049384;28;20259;-69
2021/01/27 06:35:33;;;;;;;23.47;4.57;;;20.70;99.90;;;;;;5050228;28;20211;-69
2021/01/27 06:38:37;;;;;;;17.63;4.33;;;20.70;99.90;;;;;;5047600;28;20183;-70
2021/01/27 06:41:16;;;;;;;25.17;4.50;;;20.70;99.90;;;;;;5043632;28;20248;-67
2021/01/27 06:44:01;;;;;;;17.80;4.33;;;20.50;99.90;;;;;;5050983;28;20180;-70
2021/01/27 06:47:03;;;;;;;20.40;3.87;;;20.40;99.90;;;;;;5041197;28;20185;-70
2021/01/27 06:49:53;;;;;;;20.07;4.63;;;20.30;99.90;;;;;;5042487;28;20175;-69
2021/01/27 06:52:41;;;;;;;23.00;3.67;;;20.30;99.90;;;;;;5049035;28;20275;-69
2021/01/27 06:55:43;;;;;;;17.67;3.33;;;20.20;99.90;;;;;;5052136;28;20649;-69
2021/01/27 06:58:42;;;;;;;25.87;3.80;;;20.10;99.90;;;;;;5049624;28;20180;-70
2021/01/27 07:01:46;;;;;;;21.83;4.27;;;20.10;99.90;;;;;;5038114;28;20173;-69
2021/01/27 07:04:28;;;;;;;19.27;3.50;;;20.20;99.90;;;;;;5052603;28;20186;-70
2021/01/27 07:07:08;;;;;;;13.97;3.00;;;20.10;99.90;;;;;;5054907;28;20183;-70
2021/01/27 07:10:03;;;;;;;12.07;3.23;;;20.00;99.90;;;;;;5052413;28;20171;-68
2021/01/27 07:12:52;;;;;;;14.87;3.13;;;20.10;99.90;;;;;;5054470;28;20191;-67
2021/01/27 07:15:31;;;;;;;16.00;2.70;;;20.20;99.90;;;;;;5054570;28;20223;-68
2021/01/27 07:18:17;;;;;;;17.50;3.30;;;20.20;99.90;;;;;;5054458;28;20188;-68
2021/01/27 07:20:49;;;;;;;17.73;3.47;;;20.20;99.90;;;;;;5054905;28;20180;-68
2021/01/27 07:23:28;;;;;;;22.27;3.70;;;20.30;99.90;;;;;;5047373;28;20271;-70
2021/01/27 07:26:24;;;;;;;20.13;3.60;;;20.20;99.90;;;;;;5051521;28;20212;-69
2021/01/27 07:29:07;;;;;;;20.67;4.00;;;20.20;99.90;;;;;;5053281;28;20545;-68
2021/01/27 07:31:46;;;;;;;19.53;3.23;;;20.20;99.90;;;;;;5069342;28;20171;-67
2021/01/27 07:34:57;;;;;;;16.90;3.73;;;20.20;99.90;;;;;;5069753;28;20616;-69
2021/01/27 07:37:34;;;;;;;20.93;4.00;;;20.20;99.90;;;;;;5046004;28;20246;-67
2021/01/27 07:40:15;;;;;;;19.93;3.50;;;20.10;99.90;;;;;;5054083;28;20195;-68
2021/01/27 07:42:54;;;;;;;14.30;3.27;;;20.10;99.90;;;;;;5054323;28;20184;-68
2021/01/27 07:45:30;;;;;;;15.77;3.00;;;20.00;99.90;;;;;;5054595;28;20270;-68
2021/01/27 07:48:20;;;;;;;16.87;3.13;;;20.10;99.90;;;;;;5054890;28;20245;-69
2021/01/27 07:50:57;;;;;;;10.57;2.50;;;19.90;99.90;;;;;;5038073;28;20338;-70
2021/01/27 07:53:30;;;;;;;8.30;2.47;;;20.00;99.90;;;;;;5045613;28;20251;-71
2021/01/27 07:56:03;;;;;;;11.53;2.67;;;19.90;99.90;;;;;;5053957;28;20546;-68
2021/01/27 07:58:43;;;;;;;9.63;2.47;;;19.90;99.90;;;;;;5053208;28;20689;-69
2021/01/27 08:01:39;;;;;;;12.77;2.57;;;19.90;99.90;;;;;;5054366;28;20209;-70
2021/01/27 08:04:39;;;;;;;14.10;3.27;;;19.90;99.90;;;;;;5049402;28;20192;-70
2021/01/27 08:07:16;;;;;;;18.60;3.80;;;19.90;99.90;;;;;;5053947;28;20279;-67
2021/01/27 08:09:44;;;;;;;21.07;4.30;;;19.90;99.90;;;;;;5053265;28;20222;-70
2021/01/27 08:12:27;;;;;;;27.20;5.63;;;20.00;99.90;;;;;;5053999;28;20211;-70
2021/01/27 08:15:06;;;;;;;23.20;5.80;;;20.00;99.90;;;;;;5045130;28;20286;-69
2021/01/27 08:17:54;;;;;;;29.10;8.73;;;19.90;99.90;;;;;;5058275;28;20176;-67
2021/01/27 08:20:27;;;;;;;20.37;5.10;;;20.00;99.90;;;;;;5043832;28;20644;-69
2021/01/27 08:23:06;;;;;;;28.73;5.93;;;20.10;99.90;;;;;;5047486;28;20271;-68
2021/01/27 08:25:57;;;;;;;29.67;6.63;;;20.00;99.90;;;;;;5053546;28;20206;-67
2021/01/27 08:28:37;;;;;;;28.50;6.10;;;20.00;99.90;;;;;;5052582;28;20191;-68
2021/01/27 08:31:10;;;;;;;34.30;5.97;;;20.10;99.90;;;;;;5050391;28;20662;-69
2021/01/27 08:33:46;;;;;;;30.13;6.50;;;20.00;99.90;;;;;;5052265;28;20176;-69
2021/01/27 08:36:29;;;;;;;30.93;5.53;;;20.00;99.90;;;;;;5050905;28;20608;-71
2021/01/27 08:38:58;;;;;;;25.93;5.60;;;20.00;99.90;;;;;;5051272;28;20275;-71
2021/01/27 08:41:44;;;;;;;18.27;4.60;;;19.90;99.90;;;;;;5052823;28;20646;-68
2021/01/27 08:44:21;;;;;;;23.73;4.30;;;19.90;99.90;;;;;;5046952;28;20654;-69
2021/01/27 08:46:53;;;;;;;19.47;4.73;;;19.70;99.90;;;;;;5047551;28;20205;-70
2021/01/27 08:49:42;;;;;;;16.47;6.67;;;19.70;99.90;;;;;;5052837;28;20666;-69
2021/01/27 08:52:12;;;;;;;21.27;5.63;;;19.70;99.90;;;;;;5039742;28;20219;-69
2021/01/27 08:54:42;;;;;;;15.43;4.57;;;19.50;99.90;;;;;;5052980;28;20216;-70
2021/01/27 08:57:26;;;;;;;17.97;5.53;;;19.50;99.90;;;;;;5053115;28;20188;-69
2021/01/27 09:00:26;;;;;;;15.83;4.90;;;19.40;99.90;;;;;;5053088;28;20656;-68
2021/01/27 09:02:57;;;;;;;13.37;4.50;;;19.40;99.90;;;;;;5039458;28;20647;-70
2021/01/27 09:05:27;;;;;;;21.57;5.47;;;19.30;99.90;;;;;;5052914;28;20242;-68
2021/01/27 09:08:03;;;;;;;14.13;5.30;;;19.30;99.90;;;;;;5041948;28;20187;-69
2021/01/27 09:10:36;;;;;;;17.40;6.00;;;19.30;99.90;;;;;;5053312;28;20271;-68
2021/01/27 09:13:41;;;;;;;18.03;6.10;;;19.20;99.90;;;;;;5049345;28;20651;-68
2021/01/27 09:16:28;;;;;;;15.87;5.27;;;19.30;99.90;;;;;;5053022;28;20203;-68
2021/01/27 09:19:02;;;;;;;21.10;6.43;;;19.30;99.90;;;;;;5052067;28;20180;-69
2021/01/27 09:21:33;;;;;;;20.47;5.50;;;19.40;99.90;;;;;;5042754;28;20214;-69
2021/01/27 09:24:09;;;;;;;26.77;6.10;;;19.40;99.90;;;;;;5053199;28;20259;-67
2021/01/27 09:26:45;;;;;;;21.87;5.57;;;19.40;99.90;;;;;;5062095;28;20242;-71
2021/01/27 09:29:20;;;;;;;17.50;5.47;;;19.40;99.90;;;;;;5050382;28;20266;-68
2021/01/27 09:31:47;;;;;;;19.40;7.03;;;19.40;99.90;;;;;;5049362;28;20191;-68
2021/01/27 09:34:33;;;;;;;23.57;8.20;;;19.40;99.90;;;;;;5051523;28;20207;-69
2021/01/27 09:37:11;;;;;;;20.87;5.97;;;19.40;99.90;;;;;;5040016;28;20187;-67
2021/01/27 09:39:42;;;;;;;21.37;6.00;;;19.30;99.90;;;;;;5052346;28;20183;-70
2021/01/27 09:42:27;;;;;;;17.37;6.43;;;19.30;99.90;;;;;;5051452;28;20191;-68
2021/01/27 09:45:10;;;;;;;22.40;6.60;;;19.30;99.90;;;;;;5051252;28;20266;-68
2021/01/27 09:47:42;;;;;;;20.27;6.10;;;19.30;99.90;;;;;;5049787;28;20540;-72
2021/01/27 09:50:11;;;;;;;21.53;6.87;;;19.40;99.90;;;;;;5051560;28;20180;-68
2021/01/27 09:52:43;;;;;;;20.93;7.10;;;19.40;99.90;;;;;;5052756;28;20646;-67
2021/01/27 09:55:16;;;;;;;22.10;7.83;;;19.40;99.90;;;;;;5051578;28;20678;-68
2021/01/27 09:57:44;;;;;;;23.30;6.60;;;19.40;99.90;;;;;;5051255;28;20191;-69
2021/01/27 10:00:38;;;;;;;21.00;5.87;;;19.30;99.90;;;;;;5052103;28;20188;-70
2021/01/27 10:03:29;;;;;;;21.70;6.37;;;19.30;99.90;;;;;;5047520;28;20229;-69
2021/01/27 10:06:00;;;;;;;24.13;6.67;;;19.40;99.90;;;;;;5044669;28;20219;-68
2021/01/27 10:08:40;;;;;;;24.40;6.77;;;19.40;99.90;;;;;;5052072;28;20196;-68
2021/01/27 10:11:11;;;;;;;23.70;7.23;;;19.40;99.90;;;;;;5046542;28;20175;-69
2021/01/27 10:13:41;;;;;;;21.00;6.57;;;19.40;99.90;;;;;;5051142;28;20182;-68
2021/01/27 10:16:13;;;;;;;19.83;6.10;;;19.30;99.90;;;;;;5049964;28;20215;-68
2021/01/27 10:18:43;;;;;;;22.73;6.90;;;19.40;99.90;;;;;;5049874;28;20211;-69
2021/01/27 10:21:14;;;;;;;23.93;6.43;;;19.40;99.90;;;;;;5051696;28;20195;-67
2021/01/27 10:23:46;;;;;;;17.80;5.43;;;19.50;99.90;;;;;;5050976;28;20195;-68
2021/01/27 10:26:39;;;;;;;21.77;5.27;;;19.50;99.90;;;;;;5051181;28;20233;-68
2021/01/27 10:29:27;;;;;;;19.97;4.90;;;19.40;99.90;;;;;;5049488;28;20696;-68
2021/01/27 10:31:56;;;;;;;18.07;5.17;;;19.40;99.90;;;;;;5046689;28;20191;-69
2021/01/27 10:34:44;;;;;;;23.37;4.97;;;19.40;99.90;;;;;;5048235;28;20183;-68
2021/01/27 10:37:32;;;;;;;26.17;5.37;;;19.40;99.90;;;;;;5056868;28;20198;-68
2021/01/27 10:40:15;;;;;;;23.20;5.50;;;19.40;99.90;;;;;;5044058;28;20536;-68
2021/01/27 10:42:45;;;;;;;20.90;4.90;;;19.50;99.90;;;;;;5050940;28;20195;-68
2021/01/27 10:45:27;;;;;;;16.47;4.23;;;19.40;99.90;;;;;;5055222;28;20187;-68
2021/01/27 10:48:03;;;;;;;16.27;3.90;;;19.40;99.90;;;;;;5053606;28;21935;-67
2021/01/27 10:50:30;;;;;;;10.77;4.13;;;19.30;99.90;;;;;;5052487;28;20237;-68
2021/01/27 10:52:59;;;;;;;16.60;4.53;;;19.30;99.90;;;;;;5054919;28;20191;-68
2021/01/27 10:55:33;;;;;;;14.40;4.43;;;19.30;99.90;;;;;;5054334;28;20701;-68
2021/01/27 10:58:12;;;;;;;25.57;4.43;;;19.30;99.90;;;;;;5055351;28;20179;-68
2021/01/27 11:00:40;;;;;;;16.47;4.43;;;19.30;99.90;;;;;;5053879;28;20187;-68
2021/01/27 11:03:09;;;;;;;17.80;4.70;;;19.30;99.90;;;;;;5055722;28;20198;-68
2021/01/27 11:05:37;;;;;;;15.27;3.47;;;19.30;99.90;;;;;;5055341;28;20211;-69
2021/01/27 11:08:06;;;;;;;14.97;4.23;;;19.30;99.90;;;;;;5055821;28;20176;-68
2021/01/27 11:10:34;;;;;;;25.83;5.07;;;19.20;99.90;;;;;;5055182;28;20244;-67
2021/01/27 11:13:01;;;;;;;25.20;4.90;;;19.30;99.90;;;;;;5050130;28;20188;-67
2021/01/27 11:15:28;;;;;;;17.13;4.33;;;19.30;99.90;;;;;;5054721;28;20252;-69
2021/01/27 11:17:56;;;;;;;24.23;5.03;;;19.30;99.90;;;;;;5055098;28;20187;-69
2021/01/27 11:20:26;;;;;;;18.67;4.90;;;19.30;99.90;;;;;;5055203;28;20191;-69
2021/01/27 11:22:55;;;;;;;17.27;4.57;;;19.40;99.90;;;;;;5054259;28;20183;-68
2021/01/27 11:25:28;;;;;;;17.23;4.43;;;19.40;99.90;;;;;;5054231;28;20188;-68
2021/01/27 11:27:56;;;;;;;18.93;4.57;;;19.40;99.90;;;;;;5051018;28;20195;-68
2021/01/27 11:30:27;;;;;;;24.37;5.73;;;19.40;99.90;;;;;;5055032;28;20180;-68
2021/01/27 11:32:55;;;;;;;21.17;5.50;;;19.40;99.90;;;;;;5053007;28;20172;-69
2021/01/27 11:35:23;;;;;;;23.43;4.70;;;19.40;99.90;;;;;;5054438;28;20218;-72
2021/01/27 11:37:51;;;;;;;23.80;5.37;;;19.50;99.90;;;;;;5044082;28;20543;-70
2021/01/27 11:40:21;;;;;;;19.97;4.13;;;19.50;99.90;;;;;;5052234;28;20183;-71
2021/01/27 11:42:49;;;;;;;22.67;4.67;;;19.50;99.90;;;;;;5052687;28;20351;-69
2021/01/27 11:45:19;;;;;;;18.43;5.03;;;19.50;99.90;;;;;;5053883;28;20191;-69
2021/01/27 11:47:46;;;;;;;20.53;4.43;;;19.50;99.90;;;;;;5055265;28;20180;-68
2021/01/27 11:50:15;;;;;;;25.50;4.50;;;19.50;99.90;;;;;;5050342;28;20638;-71
2021/01/27 11:52:44;;;;;;;18.70;4.27;;;19.50;99.90;;;;;;5041637;28;20180;-70
2021/01/27 11:55:11;;;;;;;16.03;4.13;;;19.60;99.90;;;;;;5050730;28;20204;-69
2021/01/27 11:57:39;;;;;;;24.80;5.83;;;19.60;99.90;;;;;;5054435;28;20211;-69
2021/01/27 12:00:07;;;;;;;21.97;4.43;;;19.70;99.90;;;;;;5054595;28;20665;-69
2021/01/27 12:02:35;;;;;;;19.10;4.53;;;19.70;99.90;;;;;;5053455;28;20184;-69
2021/01/27 12:05:03;;;;;;;28.83;4.77;;;19.70;99.90;;;;;;5053680;28;20183;-69
2021/01/27 12:07:30;;;;;;;31.83;5.63;;;19.70;99.90;;;;;;5052091;28;20657;-70
2021/01/27 12:09:58;;;;;;;23.00;4.57;;;19.70;99.90;;;;;;5054803;28;20211;-68
2021/01/27 12:12:25;;;;;;;22.33;4.63;;;19.70;99.90;;;;;;5052933;28;20267;-70
2021/01/27 12:14:52;;;;;;;15.70;4.57;;;19.70;99.90;;;;;;5054390;28;20210;-69
2021/01/27 12:17:20;;;;;;;20.50;4.77;;;19.70;99.90;;;;;;5054657;28;20671;-69
2021/01/27 12:19:47;;;;;;;18.17;4.30;;;19.70;99.90;;;;;;5053861;28;20184;-70
2021/01/27 12:22:14;;;;;;;16.47;4.50;;;19.70;99.90;;;;;;5054449;28;20268;-70
2021/01/27 12:24:42;;;;;;;14.43;4.00;;;19.70;99.90;;;;;;5039691;28;20634;-70
2021/01/27 12:27:09;;;;;;;18.20;4.10;;;19.70;99.90;;;;;;5053357;28;20235;-69
2021/01/27 12:29:37;;;;;;;16.43;4.37;;;19.70;99.90;;;;;;5067219;28;20322;-69
2021/01/27 12:32:04;;;;;;;14.07;3.80;;;19.70;99.90;;;;;;5052583;28;20188;-69
2021/01/27 12:34:32;;;;;;;19.93;4.13;;;19.60;99.90;;;;;;5053537;28;20188;-70
2021/01/27 12:37:00;;;;;;;20.80;4.07;;;19.60;99.90;;;;;;5053129;28;20192;-69
2021/01/27 12:39:28;;;;;;;26.17;4.77;;;19.60;99.90;;;;;;5054399;28;20176;-72
2021/01/27 12:41:56;;;;;;;18.60;3.73;;;19.60;99.90;;;;;;5052900;28;20190;-69
2021/01/27 12:44:23;;;;;;;18.60;4.00;;;19.50;99.90;;;;;;5054070;28;20179;-68
2021/01/27 12:46:53;;;;;;;23.57;4.57;;;19.50;99.90;;;;;;5050976;28;20200;-70
2021/01/27 12:49:22;;;;;;;16.13;4.03;;;19.50;99.90;;;;;;5047239;28;20519;-69
2021/01/27 12:51:49;;;;;;;14.90;3.60;;;19.50;99.90;;;;;;5036637;28;20542;-70
2021/01/27 12:54:16;;;;;;;18.27;4.20;;;19.50;99.90;;;;;;5053830;28;20545;-70
2021/01/27 12:56:44;;;;;;;17.03;3.50;;;19.50;99.90;;;;;;5053615;28;20218;-70
2021/01/27 12:59:11;;;;;;;23.50;4.27;;;19.50;99.90;;;;;;5053706;28;20183;-69
2021/01/27 13:01:39;;;;;;;15.17;4.07;;;19.40;99.90;;;;;;5053094;28;20195;-69
2021/01/27 13:04:06;;;;;;;24.67;3.97;;;19.40;99.90;;;;;;5053583;28;20291;-69
2021/01/27 13:06:34;;;;;;;15.67;3.93;;;19.40;99.90;;;;;;5053562;28;20179;-69
2021/01/27 13:09:01;;;;;;;17.97;4.33;;;19.40;99.90;;;;;;5053140;28;20184;-69
2021/01/27 13:11:29;;;;;;;19.27;4.27;;;19.40;99.90;;;;;;5053051;28;20203;-69
2021/01/27 13:13:56;;;;;;;17.43;4.07;;;19.40;99.90;;;;;;5053271;28;20191;-69
2021/01/27 13:16:24;;;;;;;24.57;4.53;;;19.50;99.90;;;;;;5052219;28;20552;-69
2021/01/27 13:18:51;;;;;;;25.67;4.17;;;19.40;99.90;;;;;;5053025;28;20180;-70
2021/01/27 13:21:18;;;;;;;16.70;4.10;;;19.50;99.90;;;;;;5053434;28;20591;-69